Time;durP1;ratioP1;P1;durP2;ratioP2;P2;SDS_P1;SDS_P2;PMS_P1;PMS_P2;Temp;Humidity;BMP_temperature;BMP_pressure;BME280_temperature;BME280_humidity;BME280_pressure;Samples;Min_cycle;Max_cycle;Signal;HPM_P1;HPM_P2
2023/05/23 00:01:44;;;;;;;14.27;10.25;;;15.00;99.90;;;;;;5117058;27;20043;-66
2023/05/23 00:04:15;;;;;;;20.27;10.73;;;15.00;99.90;;;;;;5117583;27;20040;-63
2023/05/23 00:06:45;;;;;;;16.70;9.70;;;14.90;99.90;;;;;;5117810;27;20039;-64
2023/05/23 00:09:13;;;;;;;16.42;10.43;;;14.90;99.90;;;;;;5117558;27;20050;-64
2023/05/23 00:11:43;;;;;;;17.55;10.25;;;15.00;99.90;;;;;;5117687;27;20051;-63
2023/05/23 00:14:14;;;;;;;19.10;11.57;;;14.90;99.90;;;;;;5100937;27;20046;-64
2023/05/23 00:16:42;;;;;;;19.50;11.98;;;14.90;99.90;;;;;;5117646;27;20058;-63
2023/05/23 00:19:10;;;;;;;26.35;12.65;;;14.80;99.90;;;;;;5117662;27;20047;-64
2023/05/23 00:21:39;;;;;;;21.83;13.13;;;14.60;99.90;;;;;;5117243;27;20043;-63
2023/05/23 00:24:06;;;;;;;20.02;12.00;;;14.50;99.90;;;;;;5117166;27;20047;-65
2023/05/23 00:26:33;;;;;;;19.77;12.98;;;14.40;99.90;;;;;;5117882;27;20049;-64
2023/05/23 00:28:59;;;;;;;26.92;13.48;;;14.30;99.90;;;;;;5113082;27;20056;-63
2023/05/23 00:31:25;;;;;;;25.33;13.48;;;14.10;99.90;;;;;;5100462;27;20047;-64
2023/05/23 00:33:52;;;;;;;23.58;12.38;;;14.10;99.90;;;;;;5117231;27;20107;-63
2023/05/23 00:36:18;;;;;;;21.95;13.23;;;14.10;99.90;;;;;;5099801;27;20054;-63
2023/05/23 00:38:44;;;;;;;21.85;12.93;;;14.10;99.90;;;;;;5116818;27;20053;-63
2023/05/23 00:41:11;;;;;;;24.50;14.10;;;14.00;99.90;;;;;;5116233;27;20100;-64
2023/05/23 00:43:37;;;;;;;31.55;16.17;;;14.00;99.90;;;;;;5117399;27;20097;-62
2023/05/23 00:46:04;;;;;;;29.90;14.05;;;13.90;99.90;;;;;;5116890;27;20047;-63
2023/05/23 00:48:30;;;;;;;29.38;15.13;;;14.10;99.90;;;;;;5117120;27;20107;-63
2023/05/23 00:50:56;;;;;;;26.17;13.65;;;14.00;99.90;;;;;;5116282;27;20043;-64
2023/05/23 00:53:24;;;;;;;27.63;14.27;;;14.00;99.90;;;;;;5116980;27;20057;-64
2023/05/23 00:55:50;;;;;;;27.73;14.85;;;13.90;99.90;;;;;;5116586;27;20047;-65
2023/05/23 00:58:17;;;;;;;25.20;13.95;;;13.90;99.90;;;;;;5116876;28;20047;-63
2023/05/23 01:00:43;;;;;;;29.95;15.07;;;14.00;99.90;;;;;;5100132;27;20043;-62
2023/05/23 01:03:16;;;;;;;31.05;14.10;;;14.00;99.90;;;;;;5117218;27;20116;-63
2023/05/23 01:05:43;;;;;;;30.15;13.98;;;13.90;99.90;;;;;;5116732;27;20054;-62
2023/05/23 01:08:10;;;;;;;25.98;13.60;;;13.90;99.90;;;;;;5099395;27;20043;-63
2023/05/23 01:10:37;;;;;;;28.00;14.57;;;13.90;99.90;;;;;;5116162;27;20118;-65
2023/05/23 01:13:16;;;;;;;23.17;14.05;;;14.00;99.90;;;;;;5116597;28;20433;-63
2023/05/23 01:16:01;;;;;;;26.35;13.98;;;14.00;99.90;;;;;;5116547;28;20051;-63
2023/05/23 01:18:40;;;;;;;28.38;15.10;;;14.00;99.90;;;;;;5116545;28;20039;-63
2023/05/23 01:21:17;;;;;;;25.85;13.40;;;14.00;99.90;;;;;;5095728;28;20055;-63
2023/05/23 01:24:02;;;;;;;22.77;12.90;;;13.90;99.90;;;;;;5095899;28;20406;-64
2023/05/23 01:26:51;;;;;;;24.48;12.23;;;14.00;99.90;;;;;;5079123;28;20043;-64
2023/05/23 01:29:38;;;;;;;21.10;12.68;;;14.00;99.90;;;;;;5095359;28;20046;-63
2023/05/23 01:32:10;;;;;;;22.27;12.07;;;14.00;99.90;;;;;;5115457;28;20445;-63
2023/05/23 01:34:37;;;;;;;;;;;14.00;99.90;;;;;;5117247;28;20050;-62
2023/05/23 01:37:10;;;;;;;20.40;10.48;;;14.00;99.90;;;;;;5116593;28;19923;-62
2023/05/23 01:39:37;;;;;;;20.83;10.90;;;14.00;99.90;;;;;;5116941;28;20043;-62
2023/05/23 01:42:04;;;;;;;19.23;11.20;;;14.00;99.90;;;;;;5116676;28;20051;-62
2023/05/23 01:44:32;;;;;;;18.92;10.98;;;14.00;99.90;;;;;;5116638;28;20096;-64
2023/05/23 01:47:00;;;;;;;20.05;11.02;;;14.00;99.90;;;;;;5116222;28;20044;-62
2023/05/23 01:49:27;;;;;;;22.17;11.05;;;14.00;99.90;;;;;;5116628;28;20047;-63
2023/05/23 01:51:53;;;;;;;18.48;10.35;;;13.90;99.90;;;;;;5116373;28;20043;-62
2023/05/23 01:54:20;;;;;;;21.88;11.60;;;14.00;99.90;;;;;;5120817;27;20054;-62
2023/05/23 01:56:47;;;;;;;20.98;10.93;;;13.90;99.90;;;;;;5120554;27;20157;-62
2023/05/23 01:59:13;;;;;;;22.55;10.88;;;13.90;99.90;;;;;;5120498;27;20058;-63
2023/05/23 02:01:40;;;;;;;21.88;10.15;;;14.00;99.90;;;;;;5120228;27;20039;-63
2023/05/23 02:04:06;;;;;;;17.73;9.80;;;13.90;99.90;;;;;;5120579;27;20053;-64
2023/05/23 02:06:34;;;;;;;19.60;10.98;;;13.90;99.90;;;;;;5102991;27;20321;-63
2023/05/23 02:09:07;;;;;;;18.15;10.15;;;13.90;99.90;;;;;;5138486;27;20100;-63
2023/05/23 02:11:34;;;;;;;19.48;10.90;;;13.90;99.90;;;;;;5137755;27;20047;-63
2023/05/23 02:14:01;;;;;;;16.42;9.40;;;13.80;99.90;;;;;;5138421;27;20059;-63
2023/05/23 02:16:27;;;;;;;24.98;9.90;;;13.90;99.90;;;;;;5137625;27;20058;-64
2023/05/23 02:18:55;;;;;;;19.20;10.07;;;13.90;99.90;;;;;;5138077;27;20047;-62
2023/05/23 02:21:23;;;;;;;16.77;9.20;;;13.90;99.90;;;;;;5118489;27;20100;-62
2023/05/23 02:23:49;;;;;;;14.50;9.13;;;13.90;99.90;;;;;;5103207;27;20137;-62
2023/05/23 02:26:16;;;;;;;17.13;9.27;;;13.90;99.90;;;;;;5118906;27;20116;-65
2023/05/23 02:28:43;;;;;;;19.70;9.95;;;13.90;99.90;;;;;;5137874;27;20103;-63
2023/05/23 02:31:09;;;;;;;13.85;7.95;;;13.80;99.90;;;;;;5115932;28;20048;-62
2023/05/23 02:33:35;;;;;;;18.80;9.40;;;13.70;99.90;;;;;;5116453;28;20044;-62
2023/05/23 02:36:02;;;;;;;18.55;9.65;;;13.80;99.90;;;;;;5115988;28;20044;-63
2023/05/23 02:38:29;;;;;;;17.17;8.68;;;13.80;99.90;;;;;;5115789;28;20047;-62
2023/05/23 02:40:56;;;;;;;18.42;9.13;;;13.70;99.90;;;;;;5098622;28;20085;-63
2023/05/23 02:43:23;;;;;;;22.15;10.77;;;13.70;99.90;;;;;;5116988;28;20044;-64
2023/05/23 02:45:49;;;;;;;21.02;10.68;;;13.80;99.90;;;;;;5115716;28;20180;-62
2023/05/23 02:48:15;;;;;;;20.40;9.32;;;13.70;99.90;;;;;;5115417;28;20093;-64
2023/05/23 02:50:42;;;;;;;16.95;9.35;;;13.70;99.90;;;;;;5115790;28;20059;-63
2023/05/23 02:53:08;;;;;;;15.95;8.02;;;13.80;99.90;;;;;;5098745;28;20070;-63
2023/05/23 02:55:34;;;;;;;15.15;8.95;;;13.70;99.90;;;;;;5115639;28;20120;-63
2023/05/23 02:58:00;;;;;;;17.42;9.10;;;13.60;99.90;;;;;;5115436;28;20108;-62
2023/05/23 03:00:26;;;;;;;16.83;9.05;;;13.70;99.90;;;;;;5115582;28;20112;-63
2023/05/23 03:02:53;;;;;;;16.20;8.25;;;13.70;99.90;;;;;;5114871;28;20047;-63
2023/05/23 03:05:19;;;;;;;19.42;9.02;;;13.70;99.90;;;;;;5115178;28;20462;-63
2023/05/23 03:07:45;;;;;;;18.25;8.45;;;13.60;99.90;;;;;;5115344;28;20048;-63
2023/05/23 03:10:12;;;;;;;22.80;8.70;;;13.60;99.90;;;;;;5115038;28;20047;-64
2023/05/23 03:12:38;;;;;;;17.60;8.68;;;13.60;99.90;;;;;;5115185;28;20055;-64
2023/05/23 03:15:05;;;;;;;16.65;7.70;;;13.60;99.90;;;;;;5098271;28;20051;-63
2023/05/23 03:17:31;;;;;;;18.02;7.90;;;13.70;99.90;;;;;;5114784;28;20133;-63
2023/05/23 03:19:57;;;;;;;16.88;8.00;;;13.70;99.90;;;;;;5098301;28;20104;-62
2023/05/23 03:22:23;;;;;;;17.77;8.10;;;13.70;99.90;;;;;;5115431;28;20040;-63
2023/05/23 03:24:50;;;;;;;18.13;8.95;;;13.70;99.90;;;;;;5115326;28;20050;-62
2023/05/23 03:27:16;;;;;;;15.63;8.20;;;13.60;99.90;;;;;;5098420;28;20044;-65
2023/05/23 03:29:42;;;;;;;16.85;8.25;;;13.60;99.90;;;;;;5114837;28;20070;-63
2023/05/23 03:32:08;;;;;;;18.45;7.82;;;13.50;99.90;;;;;;5115082;28;20047;-62
2023/05/23 03:34:35;;;;;;;18.70;8.23;;;13.50;99.90;;;;;;5115314;28;20111;-62
2023/05/23 03:37:01;;;;;;;21.10;8.18;;;13.60;99.90;;;;;;5114867;28;20056;-62
2023/05/23 03:39:27;;;;;;;17.65;8.10;;;13.60;99.90;;;;;;5115069;28;20116;-63
2023/05/23 03:41:54;;;;;;;18.70;8.13;;;13.50;99.90;;;;;;5114840;28;20463;-62
2023/05/23 03:44:20;;;;;;;18.88;8.27;;;13.40;99.90;;;;;;5114938;28;20070;-62
2023/05/23 03:46:46;;;;;;;15.15;8.02;;;13.50;99.90;;;;;;5114669;28;20051;-63
2023/05/23 03:49:13;;;;;;;18.02;9.10;;;13.40;99.90;;;;;;5098404;28;20052;-63
2023/05/23 03:51:41;;;;;;;18.05;7.43;;;13.50;99.90;;;;;;5114993;28;20050;-62
2023/05/23 03:54:07;;;;;;;17.52;7.53;;;13.40;99.90;;;;;;5114893;28;20039;-62
2023/05/23 03:56:33;;;;;;;18.67;7.90;;;13.40;99.90;;;;;;5114714;28;20061;-63
2023/05/23 03:59:00;;;;;;;18.52;7.47;;;13.40;99.90;;;;;;5115207;28;20058;-63
2023/05/23 04:01:26;;;;;;;15.50;7.45;;;13.40;99.90;;;;;;5097993;28;20044;-63
2023/05/23 04:03:53;;;;;;;15.98;7.38;;;13.30;99.90;;;;;;5114661;28;20051;-62
2023/05/23 04:06:19;;;;;;;15.70;6.90;;;13.30;99.90;;;;;;5114331;28;20112;-62
2023/05/23 04:08:47;;;;;;;16.35;7.57;;;13.40;99.90;;;;;;5115437;28;20044;-63
2023/05/23 04:11:13;;;;;;;13.82;7.00;;;13.20;99.90;;;;;;5114711;28;20344;-61
2023/05/23 04:13:39;;;;;;;15.77;6.57;;;13.30;99.90;;;;;;5097667;28;20052;-63
2023/05/23 04:16:06;;;;;;;16.98;8.05;;;13.30;99.90;;;;;;5096332;28;20077;-63
2023/05/23 04:18:32;;;;;;;13.32;6.28;;;13.20;99.90;;;;;;5114742;28;20055;-62
2023/05/23 04:20:59;;;;;;;14.00;7.03;;;13.20;99.90;;;;;;5114188;28;20391;-63
2023/05/23 04:23:25;;;;;;;12.73;6.13;;;13.10;99.90;;;;;;5098337;28;20044;-62
2023/05/23 04:25:51;;;;;;;15.52;6.68;;;13.10;99.90;;;;;;5097444;28;20050;-63
2023/05/23 04:28:17;;;;;;;16.35;5.75;;;13.10;99.90;;;;;;5114418;28;20043;-64
2023/05/23 04:30:44;;;;;;;13.82;6.03;;;13.10;99.90;;;;;;5097430;28;20062;-63
2023/05/23 04:33:10;;;;;;;16.42;6.80;;;13.20;99.90;;;;;;5097335;28;20456;-63
2023/05/23 04:35:39;;;;;;;13.43;6.00;;;13.10;99.90;;;;;;5114196;28;20055;-63
2023/05/23 04:38:06;;;;;;;12.40;6.22;;;13.00;99.90;;;;;;5114451;28;20054;-62
2023/05/23 04:40:32;;;;;;;14.98;6.45;;;13.10;99.90;;;;;;5114838;28;20044;-63
2023/05/23 04:42:58;;;;;;;13.23;6.53;;;13.10;99.90;;;;;;5097615;28;20044;-63
2023/05/23 04:45:25;;;;;;;16.08;7.05;;;13.00;99.90;;;;;;5114801;28;20046;-63
2023/05/23 04:47:53;;;;;;;13.95;6.45;;;12.80;99.90;;;;;;5116584;27;20047;-65
2023/05/23 04:50:21;;;;;;;13.75;6.28;;;12.90;99.90;;;;;;5114292;28;20054;-62
2023/05/23 04:52:48;;;;;;;11.23;6.70;;;12.90;99.90;;;;;;5096586;28;20047;-63
2023/05/23 04:55:14;;;;;;;15.80;6.35;;;12.90;99.90;;;;;;5110196;27;20063;-63
2023/05/23 04:57:40;;;;;;;16.77;6.40;;;12.80;99.90;;;;;;5110074;27;20047;-63
2023/05/23 05:00:10;;;;;;;13.70;5.75;;;12.80;99.90;;;;;;5081077;28;20059;-64
2023/05/23 05:02:37;;;;;;;12.77;6.60;;;12.90;99.90;;;;;;5075449;28;20040;-63
2023/05/23 05:05:04;;;;;;;12.00;5.85;;;12.80;99.90;;;;;;5076680;28;20135;-63
2023/05/23 05:07:30;;;;;;;13.40;5.70;;;12.80;99.90;;;;;;5076214;28;20051;-62
2023/05/23 05:09:56;;;;;;;14.35;5.68;;;12.80;99.90;;;;;;5075904;28;20109;-62
2023/05/23 05:12:23;;;;;;;16.52;5.40;;;12.90;99.90;;;;;;5093562;28;20120;-64
2023/05/23 05:14:49;;;;;;;10.68;5.15;;;12.80;99.90;;;;;;5094584;28;20509;-63
2023/05/23 05:17:15;;;;;;;12.77;4.45;;;12.80;99.90;;;;;;5094537;28;20059;-63
2023/05/23 05:19:42;;;;;;;9.98;4.38;;;12.80;99.90;;;;;;5093648;28;20483;-63
2023/05/23 05:22:08;;;;;;;14.40;5.82;;;12.90;99.90;;;;;;5094466;28;20058;-62
2023/05/23 05:24:34;;;;;;;8.68;4.45;;;12.80;99.90;;;;;;5094507;28;20081;-64
2023/05/23 05:27:01;;;;;;;11.00;4.80;;;12.80;99.90;;;;;;5094683;28;20055;-64
2023/05/23 05:29:27;;;;;;;11.13;4.65;;;12.70;99.90;;;;;;5098542;28;20043;-63
2023/05/23 05:31:54;;;;;;;13.05;5.20;;;12.80;99.90;;;;;;5083056;28;20052;-63
2023/05/23 05:34:21;;;;;;;11.45;4.53;;;12.80;99.90;;;;;;5098890;28;20044;-63
2023/05/23 05:36:47;;;;;;;14.27;5.80;;;12.70;99.90;;;;;;5100000;28;20422;-64
2023/05/23 05:39:14;;;;;;;14.90;5.00;;;12.80;99.90;;;;;;5099908;28;20483;-63
2023/05/23 05:41:40;;;;;;;13.65;5.70;;;12.70;99.90;;;;;;5099805;28;20110;-64
2023/05/23 05:44:07;;;;;;;9.68;4.60;;;12.60;99.90;;;;;;5099068;28;20047;-65
2023/05/23 05:46:36;;;;;;;13.07;6.03;;;12.60;99.90;;;;;;5118727;28;20328;-63
2023/05/23 05:49:03;;;;;;;15.48;5.32;;;12.60;99.90;;;;;;5099296;28;20437;-64
2023/05/23 05:51:30;;;;;;;13.82;6.30;;;12.50;99.90;;;;;;5098971;28;20040;-64
2023/05/23 05:53:56;;;;;;;13.63;5.93;;;12.40;99.90;;;;;;5100335;28;20065;-64
2023/05/23 05:56:22;;;;;;;12.70;5.25;;;12.40;99.90;;;;;;5100240;28;20062;-65
2023/05/23 05:58:49;;;;;;;11.75;5.47;;;12.30;99.90;;;;;;5100489;28;20058;-63
2023/05/23 06:01:16;;;;;;;10.43;5.18;;;12.40;99.90;;;;;;5100048;28;20047;-63
2023/05/23 06:03:43;;;;;;;14.10;6.18;;;12.40;99.90;;;;;;5083026;28;20051;-63
2023/05/23 06:06:09;;;;;;;12.15;5.30;;;12.40;99.90;;;;;;5083155;28;20040;-63
2023/05/23 06:08:35;;;;;;;9.40;5.13;;;12.30;99.90;;;;;;5082775;28;20051;-63
2023/05/23 06:11:01;;;;;;;8.95;4.95;;;12.20;99.90;;;;;;5082803;28;20047;-63
2023/05/23 06:13:28;;;;;;;12.05;5.00;;;12.20;99.90;;;;;;5099903;28;20054;-62
2023/05/23 06:15:54;;;;;;;14.23;5.40;;;12.30;99.90;;;;;;5099477;28;20101;-63
2023/05/23 06:18:20;;;;;;;13.30;6.15;;;12.30;99.90;;;;;;5099878;28;20055;-63
2023/05/23 06:20:47;;;;;;;9.20;5.72;;;12.30;99.90;;;;;;5099341;28;20431;-63
2023/05/23 06:23:13;;;;;;;14.52;5.20;;;12.30;99.90;;;;;;5099232;28;20464;-63
2023/05/23 06:25:39;;;;;;;14.02;5.32;;;12.30;99.90;;;;;;5099591;28;20052;-63
2023/05/23 06:28:05;;;;;;;10.55;5.35;;;12.40;99.90;;;;;;5099816;28;20101;-63
2023/05/23 06:30:34;;;;;;;10.98;5.32;;;12.40;99.90;;;;;;5099161;28;20046;-62
2023/05/23 06:33:01;;;;;;;12.98;4.95;;;12.40;99.90;;;;;;5116210;28;20464;-62
2023/05/23 06:35:27;;;;;;;11.15;4.95;;;12.50;99.90;;;;;;5116662;28;20104;-63
2023/05/23 06:37:53;;;;;;;10.30;4.78;;;12.60;99.90;;;;;;5115955;28;20050;-63
2023/05/23 06:40:20;;;;;;;11.48;4.80;;;12.60;99.90;;;;;;5117551;27;20047;-63
2023/05/23 06:42:46;;;;;;;11.48;4.35;;;12.70;99.90;;;;;;5102824;27;20046;-62
2023/05/23 06:45:13;;;;;;;10.32;4.38;;;12.80;99.90;;;;;;5119910;27;20092;-64
2023/05/23 06:47:42;;;;;;;8.23;3.72;;;12.70;99.90;;;;;;5119823;27;20112;-63
2023/05/23 06:50:09;;;;;;;13.95;4.82;;;12.80;99.90;;;;;;5119412;27;20356;-65
2023/05/23 06:52:35;;;;;;;11.85;4.63;;;12.80;99.90;;;;;;5116141;28;20056;-63
2023/05/23 06:55:02;;;;;;;16.20;5.00;;;12.70;99.90;;;;;;5101970;27;20051;-63
2023/05/23 06:57:28;;;;;;;14.27;4.78;;;12.60;99.90;;;;;;5119096;27;20051;-62
2023/05/23 06:59:54;;;;;;;9.45;4.28;;;12.60;99.90;;;;;;5119101;27;20504;-63
2023/05/23 07:02:20;;;;;;;10.80;3.60;;;12.50;99.90;;;;;;5117983;27;20107;-63
2023/05/23 07:04:47;;;;;;;11.07;3.83;;;12.40;99.90;;;;;;5119456;27;20455;-62
2023/05/23 07:07:13;;;;;;;11.85;3.60;;;12.30;99.90;;;;;;5102283;27;20139;-62
2023/05/23 07:09:39;;;;;;;13.43;3.53;;;12.30;99.90;;;;;;5119682;27;20045;-63
2023/05/23 07:12:06;;;;;;;13.93;4.05;;;12.50;99.90;;;;;;5118763;27;20051;-63
2023/05/23 07:14:34;;;;;;;11.68;3.30;;;12.70;99.90;;;;;;5119336;27;20379;-62
2023/05/23 07:17:00;;;;;;;10.05;3.90;;;13.00;99.90;;;;;;5119153;27;20047;-62
2023/05/23 07:19:27;;;;;;;14.02;3.60;;;13.30;99.90;;;;;;5119015;27;20047;-63
2023/05/23 07:21:53;;;;;;;13.20;4.00;;;13.60;99.90;;;;;;5088154;28;20051;-63
2023/05/23 07:24:19;;;;;;;11.73;4.35;;;13.70;99.90;;;;;;5098496;28;20047;-63
2023/05/23 07:26:45;;;;;;;11.32;3.95;;;14.00;99.90;;;;;;5081597;28;20467;-63
2023/05/23 07:29:12;;;;;;;12.73;3.30;;;14.40;99.90;;;;;;5098688;28;20421;-63
2023/05/23 07:31:38;;;;;;;14.35;3.30;;;14.60;99.90;;;;;;5107182;28;20052;-63
2023/05/23 07:34:04;;;;;;;14.70;4.03;;;14.60;99.90;;;;;;5115529;28;20048;-64
2023/05/23 07:36:32;;;;;;;12.95;4.45;;;14.60;99.90;;;;;;5118994;27;20351;-63
2023/05/23 07:38:59;;;;;;;13.77;3.72;;;14.40;99.90;;;;;;5118796;27;20059;-63
2023/05/23 07:41:26;;;;;;;14.10;3.90;;;14.30;99.90;;;;;;5108836;28;20047;-63
2023/05/23 07:43:52;;;;;;;14.20;4.38;;;14.10;99.90;;;;;;5098161;28;20047;-63
2023/05/23 07:46:18;;;;;;;11.23;4.28;;;14.00;99.90;;;;;;5081508;28;20052;-63
2023/05/23 07:48:45;;;;;;;11.70;3.50;;;14.00;99.90;;;;;;5098032;28;20058;-63
2023/05/23 07:51:11;;;;;;;10.88;3.13;;;13.90;99.90;;;;;;5088013;27;20039;-64
2023/05/23 07:53:38;;;;;;;15.70;4.03;;;13.90;99.90;;;;;;5118356;27;20475;-63
2023/05/23 07:56:06;;;;;;;13.75;3.65;;;13.70;99.90;;;;;;5118467;27;20583;-63
2023/05/23 07:58:32;;;;;;;16.67;4.50;;;13.70;99.90;;;;;;5118247;27;20054;-63
2023/05/23 08:00:58;;;;;;;13.48;3.35;;;13.70;99.90;;;;;;5095079;28;20051;-63
2023/05/23 08:03:24;;;;;;;14.93;3.55;;;13.90;99.90;;;;;;5097694;28;20051;-63
2023/05/23 08:05:51;;;;;;;11.98;3.65;;;13.80;99.90;;;;;;5097879;28;20039;-63
2023/05/23 08:08:17;;;;;;;12.30;3.90;;;13.90;99.90;;;;;;5097926;28;20050;-64
2023/05/23 08:10:44;;;;;;;12.80;3.60;;;13.90;99.90;;;;;;5101784;27;20135;-65
2023/05/23 08:13:10;;;;;;;11.70;3.17;;;13.80;99.90;;;;;;5101079;27;20170;-64
2023/05/23 08:15:37;;;;;;;12.98;3.35;;;13.80;99.90;;;;;;5118018;27;20051;-64
2023/05/23 08:18:04;;;;;;;16.73;4.38;;;13.60;99.90;;;;;;5118006;27;20352;-63
2023/05/23 08:20:31;;;;;;;12.20;4.20;;;13.60;99.90;;;;;;5115569;27;20055;-63
2023/05/23 08:23:00;;;;;;;10.98;3.20;;;13.60;99.90;;;;;;5097498;28;20047;-63
2023/05/23 08:25:30;;;;;;;9.48;3.20;;;13.60;99.90;;;;;;5097427;28;20177;-63
2023/05/23 08:27:57;;;;;;;12.98;3.88;;;13.60;99.90;;;;;;5097664;28;20117;-63
2023/05/23 08:30:25;;;;;;;12.90;3.72;;;13.70;99.90;;;;;;5096857;28;20058;-63
2023/05/23 08:32:52;;;;;;;13.82;3.85;;;13.80;99.90;;;;;;5118154;27;20046;-63
2023/05/23 08:35:19;;;;;;;11.23;3.80;;;13.80;99.90;;;;;;5117770;27;20054;-63
2023/05/23 08:37:45;;;;;;;9.27;3.97;;;14.00;99.90;;;;;;5100538;27;20047;-63
2023/05/23 08:40:21;;;;;;;10.98;4.10;;;14.10;99.90;;;;;;5117850;27;20051;-64
2023/05/23 08:42:49;;;;;;;11.00;3.13;;;14.30;99.90;;;;;;5117942;27;20047;-63
2023/05/23 08:45:16;;;;;;;12.65;3.65;;;14.40;99.90;;;;;;5117943;27;20071;-64
2023/05/23 08:47:43;;;;;;;10.07;3.78;;;14.50;99.90;;;;;;5117999;27;20382;-64
2023/05/23 08:50:15;;;;;;;10.57;3.33;;;14.60;99.90;;;;;;5100921;27;20043;-63
2023/05/23 08:52:54;;;;;;;9.43;3.15;;;14.80;99.90;;;;;;5117424;27;20039;-64
2023/05/23 08:55:27;;;;;;;12.05;3.22;;;14.90;99.90;;;;;;5117751;27;20038;-63
2023/05/23 08:57:54;;;;;;;13.20;3.40;;;14.90;99.90;;;;;;5117528;27;20050;-63
2023/05/23 09:00:22;;;;;;;13.70;3.78;;;15.00;99.90;;;;;;5100075;27;20043;-63
2023/05/23 09:02:48;;;;;;;8.70;3.22;;;15.10;99.90;;;;;;5096915;28;20061;-62
2023/05/23 09:05:15;;;;;;;9.07;3.83;;;15.30;99.90;;;;;;5097199;28;20079;-63
2023/05/23 09:07:46;;;;;;;13.98;3.45;;;15.40;99.90;;;;;;5080006;28;20062;-62
2023/05/23 09:10:15;;;;;;;15.73;4.68;;;15.50;99.90;;;;;;5080248;28;20392;-62
2023/05/23 09:12:42;;;;;;;13.25;3.92;;;15.60;99.90;;;;;;5096880;28;20044;-62
2023/05/23 09:15:09;;;;;;;13.93;3.65;;;15.60;99.90;;;;;;5097022;28;20051;-62
2023/05/23 09:17:36;;;;;;;13.00;4.35;;;15.50;99.90;;;;;;5097026;28;20471;-62
2023/05/23 09:20:09;;;;;;;16.95;3.90;;;15.40;99.90;;;;;;5080179;28;20384;-62
2023/05/23 09:22:35;;;;;;;11.60;3.80;;;15.50;99.90;;;;;;5097118;28;20043;-62
2023/05/23 09:25:01;;;;;;;10.18;3.58;;;15.50;99.90;;;;;;5096701;28;20116;-62
2023/05/23 09:27:29;;;;;;;12.15;3.28;;;15.60;99.90;;;;;;5096600;28;20112;-63
2023/05/23 09:29:56;;;;;;;9.07;3.58;;;15.70;99.90;;;;;;5096291;28;20083;-63
2023/05/23 09:32:22;;;;;;;9.60;3.25;;;15.90;99.90;;;;;;5096762;28;20051;-63
2023/05/23 09:34:57;;;;;;;10.85;3.85;;;16.20;99.90;;;;;;5096575;28;20398;-63
2023/05/23 09:37:45;;;;;;;12.27;3.42;;;16.50;99.90;;;;;;5096322;28;20044;-65
2023/05/23 09:40:13;;;;;;;13.75;3.78;;;16.50;99.90;;;;;;5096518;28;20050;-63
2023/05/23 09:42:45;;;;;;;10.38;3.38;;;16.70;99.90;;;;;;5099401;28;20054;-63
2023/05/23 09:45:13;;;;;;;8.95;3.22;;;16.60;99.90;;;;;;5116911;28;20451;-63
2023/05/23 09:47:49;;;;;;;11.60;3.15;;;16.50;99.90;;;;;;5099790;28;20047;-63
2023/05/23 09:50:15;;;;;;;11.23;3.38;;;16.60;99.90;;;;;;5116429;28;20069;-64
2023/05/23 09:52:42;;;;;;;11.85;3.22;;;16.80;99.90;;;;;;5116624;28;20043;-63
2023/05/23 09:55:09;;;;;;;12.27;3.63;;;16.60;99.90;;;;;;5117676;28;20451;-63
2023/05/23 09:57:39;;;;;;;11.95;3.53;;;16.60;99.90;;;;;;5099741;28;20501;-62
2023/05/23 10:00:12;;;;;;;14.27;4.18;;;16.40;99.90;;;;;;5116785;28;20059;-62
2023/05/23 10:03:07;;;;;;;14.85;3.65;;;16.40;99.90;;;;;;5064498;28;20055;-63
2023/05/23 10:05:47;;;;;;;10.10;3.60;;;16.30;99.90;;;;;;5096494;28;20058;-62
2023/05/23 10:08:18;;;;;;;10.18;3.42;;;16.10;99.90;;;;;;5096180;28;20043;-62
2023/05/23 10:10:56;;;;;;;10.38;3.97;;;16.00;99.90;;;;;;5096234;28;20058;-63
2023/05/23 10:13:27;;;;;;;10.75;3.45;;;16.30;99.90;;;;;;5096695;28;20494;-62
2023/05/23 10:16:05;;;;;;;10.98;3.88;;;16.50;99.90;;;;;;5083134;28;20048;-62
2023/05/23 10:18:38;;;;;;;10.18;3.33;;;16.70;99.90;;;;;;5099896;28;20058;-62
2023/05/23 10:21:11;;;;;;;12.57;3.45;;;17.00;99.90;;;;;;5089043;27;20457;-62
2023/05/23 10:23:39;;;;;;;11.35;2.67;;;16.90;99.90;;;;;;5120373;27;20066;-64
2023/05/23 10:26:06;;;;;;;13.10;3.22;;;17.10;99.90;;;;;;5120380;27;20059;-62
2023/05/23 10:28:33;;;;;;;12.48;3.30;;;17.30;99.90;;;;;;5103598;27;20096;-62
2023/05/23 10:30:59;;;;;;;16.45;4.53;;;16.90;99.90;;;;;;5097726;28;20062;-64
2023/05/23 10:33:27;;;;;;;11.75;3.75;;;16.60;99.90;;;;;;5082359;28;20471;-62
2023/05/23 10:35:59;;;;;;;14.02;3.65;;;16.60;99.90;;;;;;5082430;28;20055;-63
2023/05/23 10:38:41;;;;;;;9.05;3.17;;;16.50;99.90;;;;;;5099052;28;20047;-63
2023/05/23 10:41:26;;;;;;;9.40;3.03;;;16.70;99.90;;;;;;5104558;27;20047;-63
2023/05/23 10:44:32;;;;;;;12.10;3.28;;;16.90;99.90;;;;;;5102246;27;20039;-62
2023/05/23 10:47:01;;;;;;;12.05;3.55;;;16.90;99.90;;;;;;5108975;27;20047;-62
2023/05/23 10:49:50;;;;;;;9.27;3.42;;;16.90;99.90;;;;;;5119070;27;20043;-64
2023/05/23 10:52:17;;;;;;;10.02;3.08;;;16.70;99.90;;;;;;5119474;27;20120;-63
2023/05/23 10:54:45;;;;;;;10.73;3.10;;;16.60;99.90;;;;;;5118930;27;20051;-62
2023/05/23 10:57:16;;;;;;;10.50;2.53;;;16.70;99.90;;;;;;5102455;27;20058;-63
2023/05/23 10:59:44;;;;;;;7.70;2.85;;;16.80;99.90;;;;;;5118921;27;20055;-64
2023/05/23 11:02:15;;;;;;;12.73;3.13;;;16.70;99.90;;;;;;5103767;28;20047;-62
2023/05/23 11:04:42;;;;;;;8.48;2.85;;;16.70;99.90;;;;;;5098543;28;20043;-62
2023/05/23 11:07:31;;;;;;;11.60;3.13;;;16.80;99.90;;;;;;5082150;28;20047;-63
2023/05/23 11:10:12;;;;;;;10.82;2.83;;;16.80;99.90;;;;;;5098976;28;20046;-64
2023/05/23 11:12:41;;;;;;;13.68;3.13;;;16.80;99.90;;;;;;5136105;27;20051;-63
2023/05/23 11:15:16;;;;;;;9.98;2.88;;;17.00;99.90;;;;;;5119285;27;20058;-63
2023/05/23 11:18:05;;;;;;;12.18;3.20;;;17.00;99.90;;;;;;5102323;27;20400;-63
2023/05/23 11:20:33;;;;;;;11.35;2.83;;;17.00;99.90;;;;;;5119444;27;20047;-63
2023/05/23 11:23:01;;;;;;;8.63;2.90;;;16.90;99.90;;;;;;5102368;27;20118;-64
2023/05/23 11:25:52;;;;;;;11.52;2.92;;;17.00;99.90;;;;;;5118986;27;20371;-64
2023/05/23 11:28:19;;;;;;;9.75;3.00;;;17.00;99.90;;;;;;5119109;27;20065;-64
2023/05/23 11:30:49;;;;;;;7.85;2.72;;;16.90;99.90;;;;;;5115567;27;20043;-65
2023/05/23 11:33:17;;;;;;;10.73;2.80;;;17.10;99.90;;;;;;5098231;28;20044;-63
2023/05/23 11:35:45;;;;;;;9.85;2.83;;;17.00;99.90;;;;;;5097858;28;20075;-63
2023/05/23 11:38:13;;;;;;;10.52;3.55;;;16.90;99.90;;;;;;5098066;28;20044;-64
2023/05/23 11:40:41;;;;;;;12.00;3.50;;;16.90;99.90;;;;;;5080796;28;20421;-63
2023/05/23 11:43:13;;;;;;;11.30;3.90;;;17.00;99.90;;;;;;5081228;28;20142;-64
2023/05/23 11:45:40;;;;;;;10.05;3.17;;;16.90;99.90;;;;;;5097832;28;20044;-63
2023/05/23 11:48:15;;;;;;;11.25;3.65;;;16.60;99.90;;;;;;5097950;28;20047;-63
2023/05/23 11:50:48;;;;;;;11.20;3.15;;;16.50;99.90;;;;;;5082890;27;20046;-63
2023/05/23 11:53:17;;;;;;;12.23;3.40;;;16.40;99.90;;;;;;5101860;27;20047;-63
2023/05/23 11:55:48;;;;;;;9.90;2.97;;;16.60;99.90;;;;;;5118117;27;20053;-63
2023/05/23 11:58:15;;;;;;;12.02;2.88;;;16.90;99.90;;;;;;5117915;27;20048;-63
2023/05/23 12:00:43;;;;;;;10.75;3.03;;;17.10;99.90;;;;;;5100658;27;20047;-63
2023/05/23 12:03:10;;;;;;;7.88;2.60;;;16.90;99.90;;;;;;5117623;27;20465;-63
2023/05/23 12:05:37;;;;;;;9.25;2.70;;;16.90;99.90;;;;;;5117479;27;20043;-63
2023/05/23 12:08:03;;;;;;;8.90;2.70;;;16.80;99.80;;;;;;5100056;27;20043;-63
2023/05/23 12:10:29;;;;;;;14.90;3.13;;;17.20;99.90;;;;;;5117033;27;20043;-63
2023/05/23 12:12:55;;;;;;;9.25;2.92;;;17.20;99.90;;;;;;5097162;28;20089;-63
2023/05/23 12:15:26;;;;;;;9.40;2.90;;;17.20;99.90;;;;;;5096305;28;20096;-64
2023/05/23 12:17:54;;;;;;;9.82;3.00;;;17.20;99.30;;;;;;5079571;28;20047;-63
2023/05/23 12:20:21;;;;;;;10.02;2.80;;;17.50;99.80;;;;;;5096249;28;20096;-65
2023/05/23 12:22:47;;;;;;;10.25;2.95;;;17.30;99.70;;;;;;5097241;28;20395;-63
2023/05/23 12:25:13;;;;;;;8.75;2.80;;;17.20;99.90;;;;;;5096804;28;20063;-64
2023/05/23 12:27:42;;;;;;;6.82;2.63;;;17.00;99.80;;;;;;5096985;28;20044;-63
2023/05/23 12:30:16;;;;;;;8.20;2.88;;;17.10;99.90;;;;;;5096242;28;20055;-64
2023/05/23 12:32:44;;;;;;;10.68;2.78;;;17.00;98.80;;;;;;5096945;28;20048;-63
2023/05/23 12:35:13;;;;;;;13.00;2.85;;;17.00;99.50;;;;;;5078918;28;20059;-65
2023/05/23 12:37:44;;;;;;;8.88;2.50;;;16.90;99.70;;;;;;5079942;28;20057;-64
2023/05/23 12:40:13;;;;;;;7.30;2.80;;;16.80;99.80;;;;;;5079904;28;20058;-62
2023/05/23 12:42:52;;;;;;;5.88;2.40;;;16.70;99.10;;;;;;5097028;28;20074;-62